Terminal Aerodrome Forecast
Issued by NWS Newport/Morehead City, NC

Home | Current Version | Previous Version | Graphics & Text | Print | Product List | Glossary Off
Versions: 1 2 3 4 5 6 7 8 9 10 11 12 13 14 15 16

000
FTUS42 KMHX 241900 AAA
TAFEWN
TAF AMD
KEWN 241900Z 2419/2518 10013KT 5SM SHRA BKN015 OVC025
      TEMPO 2419/2421 2SM SHRA BKN008
     FM250200 09013G24KT 2SM +SHRA BKN007 OVC015
     FM250600 07010G19KT 5SM SHRA SCT025 BKN030
     FM251500 17006KT 5SM SHRA BKN025 BKN070=

USA.gov is the U.S. government's official web portal to all federal, state and local government web resources and services.